createdAt,value
2022-09-23T00:00:30.993Z,100153.96
2022-09-23T00:03:00.034Z,100157.55
2022-09-23T00:05:31.147Z,100158.07
2022-09-23T00:08:00.638Z,100155.33
2022-09-23T00:10:31.226Z,100149.01
2022-09-23T00:13:02.630Z,100148.16
2022-09-23T00:15:33.982Z,100150.05
2022-09-23T00:18:03.745Z,100148.48
2022-09-23T00:20:36.128Z,100152.39
2022-09-23T00:23:07.212Z,100147.75
2022-09-23T00:25:37.094Z,100139.95
2022-09-23T00:28:06.319Z,100138.98
2022-09-23T00:30:36.020Z,100133.83
2022-09-23T00:33:04.969Z,100137.61
2022-09-23T00:35:33.843Z,100133.30
2022-09-23T00:38:02.882Z,100127.09
2022-09-23T00:40:32.404Z,100128.37
2022-09-23T00:43:01.769Z,100129.54
2022-09-23T00:45:32.346Z,100132.60
2022-09-23T00:48:02.815Z,100131.75
2022-09-23T00:50:38.282Z,100134.70
2022-09-23T00:53:11.580Z,100128.81
2022-09-23T00:55:46.162Z,100135.45
2022-09-23T00:58:18.529Z,100127.53
2022-09-23T01:00:47.507Z,100128.34
2022-09-23T01:03:16.498Z,100125.28
2022-09-23T01:05:45.388Z,100121.50
2022-09-23T01:08:14.369Z,100131.09
2022-09-23T01:11:11.577Z,100123.08
2022-09-23T01:14:06.966Z,100121.38
2022-09-23T01:16:56.508Z,100122.55
2022-09-23T01:19:43.392Z,100120.33
2022-09-23T01:22:27.391Z,100118.12
2022-09-23T01:25:01.882Z,100125.17
2022-09-23T01:27:52.478Z,100118.12
2022-09-23T01:30:46.930Z,100121.18
2022-09-23T01:33:33.429Z,100124.64
2022-09-23T01:36:19.105Z,100126.86
2022-09-23T01:39:29.486Z,100117.91
2022-09-23T01:42:35.675Z,100119.28
2022-09-23T01:45:15.944Z,100119.08
2022-09-23T01:47:54.860Z,100110.66
2022-09-23T01:50:47.196Z,100119.41
2022-09-23T01:53:37.990Z,100116.02
2022-09-23T01:56:14.942Z,100120.54
2022-09-23T01:59:02.193Z,100109.58
2022-09-23T02:01:42.533Z,100114.66
2022-09-23T02:04:30.571Z,100104.66
2022-09-23T02:07:05.269Z,100106.98
2022-09-23T02:09:42.711Z,100108.47
2022-09-23T02:12:17.364Z,100106.58
2022-09-23T02:15:07.404Z,100110.05
2022-09-23T02:17:48.329Z,100108.67
2022-09-23T02:20:22.149Z,100096.03
2022-09-23T02:23:06.303Z,100099.17
2022-09-23T02:26:00.261Z,100104.02
2022-09-23T02:28:46.921Z,100099.06
2022-09-23T02:31:39.212Z,100104.53
2022-09-23T02:34:37.255Z,100100.43
2022-09-23T02:37:29.594Z,100098.42
2022-09-23T02:40:15.670Z,100097.05
2022-09-23T02:43:08.056Z,100099.27
2022-09-23T02:45:39.343Z,100100.55
2022-09-23T02:48:22.171Z,100099.70
2022-09-23T02:50:51.693Z,100099.49
2022-09-23T02:53:23.730Z,100101.50
2022-09-23T02:55:52.449Z,100105.52
2022-09-23T02:58:21.318Z,100100.13
2022-09-23T03:01:07.796Z,100098.86
2022-09-23T03:04:11.392Z,100099.91
2022-09-23T03:07:30.209Z,100099.27
2022-09-23T03:10:15.189Z,100099.35
2022-09-23T03:13:10.446Z,100099.67
2022-09-23T03:16:24.884Z,100100.52
2022-09-23T03:19:17.407Z,100100.63
2022-09-23T03:22:02.314Z,100102.00
2022-09-23T03:24:32.593Z,100101.69
2022-09-23T03:27:08.850Z,100096.94
2022-09-23T03:29:38.517Z,100099.35
2022-09-23T03:32:08.484Z,100107.05
2022-09-23T03:34:39.314Z,100104.31
2022-09-23T03:37:31.989Z,100106.00
2022-09-23T03:40:23.606Z,100103.05
2022-09-23T03:42:53.337Z,100103.90
2022-09-23T03:45:26.483Z,100103.78
2022-09-23T03:47:56.024Z,100112.84
2022-09-23T03:50:25.085Z,100104.10
2022-09-23T03:52:54.404Z,100104.42
2022-09-23T03:55:24.740Z,100105.27
2022-09-23T03:57:53.530Z,100100.63
2022-09-23T04:00:23.328Z,100108.33
2022-09-23T04:02:53.347Z,100107.48
2022-09-23T04:05:22.186Z,100104.33
2022-09-23T04:07:52.026Z,100103.70
2022-09-23T04:10:21.081Z,100112.23
2022-09-23T04:12:50.297Z,100115.29
2022-09-23T04:15:19.693Z,100111.39
2022-09-23T04:17:49.501Z,100116.02
2022-09-23T04:20:18.828Z,100110.54
2022-09-23T04:22:47.919Z,100118.03
2022-09-23T04:25:17.307Z,100109.92
2022-09-23T04:27:46.339Z,100112.46
2022-09-23T04:30:15.574Z,100108.03
2022-09-23T04:32:44.544Z,100111.41
2022-09-23T04:35:14.381Z,100113.22
2022-09-23T04:37:43.778Z,100116.59
2022-09-23T04:40:15.491Z,100110.91
2022-09-23T04:42:45.051Z,100112.72
2022-09-23T04:45:15.561Z,100109.88
2022-09-23T04:47:45.588Z,100116.11
2022-09-23T04:50:16.424Z,100120.86
2022-09-23T04:52:45.845Z,100114.42
2022-09-23T04:55:14.718Z,100113.38
2022-09-23T04:57:44.251Z,100115.39
2022-09-23T05:00:15.071Z,100116.87
2022-09-23T05:02:46.331Z,100118.35
2022-09-23T05:05:18.236Z,100117.94
2022-09-23T05:07:51.877Z,100119.73
2022-09-23T05:10:22.612Z,100106.47
2022-09-23T05:12:56.932Z,100114.59
2022-09-23T05:15:23.186Z,100116.71
2022-09-23T05:17:52.919Z,100119.98
2022-09-23T05:20:22.160Z,100118.61
2022-09-23T05:22:53.463Z,100122.72
2022-09-23T05:25:23.658Z,100119.45
2022-09-23T05:27:52.977Z,100117.23
2022-09-23T05:30:22.658Z,100116.71
2022-09-23T05:32:52.374Z,100115.80
2022-09-23T05:35:21.866Z,100112.44
2022-09-23T05:37:52.882Z,100115.28
2022-09-23T05:40:21.947Z,100111.49
2022-09-23T05:42:51.103Z,100118.98
2022-09-23T05:45:21.564Z,100116.56
2022-09-23T05:47:50.427Z,100112.03
2022-09-23T05:50:19.366Z,100113.51
2022-09-23T05:52:48.764Z,100114.14
2022-09-23T05:55:18.119Z,100110.55
2022-09-23T05:57:47.193Z,100119.95
2022-09-23T06:00:17.133Z,100122.37
2022-09-23T06:02:48.973Z,100115.72
2022-09-23T06:05:18.425Z,100118.78
2022-09-23T06:07:48.314Z,100112.25
2022-09-23T06:10:17.313Z,100113.41
2022-09-23T06:12:46.752Z,100118.78
2022-09-23T06:15:17.191Z,100114.67
2022-09-23T06:17:48.509Z,100117.73
2022-09-23T06:20:17.922Z,100122.27
2022-09-23T06:22:51.913Z,100123.97
2022-09-23T06:25:19.402Z,100125.23
2022-09-23T06:27:55.319Z,100123.23
2022-09-23T06:30:26.273Z,100128.72
2022-09-23T06:32:57.649Z,100126.83
2022-09-23T06:35:27.952Z,100132.84
2022-09-23T06:37:57.809Z,100124.50
2022-09-23T06:40:26.785Z,100127.38
2022-09-23T06:43:02.587Z,100126.42
2022-09-23T06:45:34.053Z,100122.97
2022-09-23T06:48:05.259Z,100125.83
2022-09-23T06:50:34.401Z,100124.55
2022-09-23T06:53:03.813Z,100123.18
2022-09-23T06:55:34.863Z,100121.06
2022-09-23T06:58:04.295Z,100124.23
2022-09-23T07:00:34.894Z,100124.02
2022-09-23T07:03:08.566Z,100119.16
2022-09-23T07:05:38.573Z,100123.91
2022-09-23T07:08:11.514Z,100125.16
2022-09-23T07:10:41.225Z,100124.64
2022-09-23T07:13:15.541Z,100121.78
2022-09-23T07:15:42.097Z,100115.75
2022-09-23T07:18:12.705Z,100119.00
2022-09-23T07:20:42.301Z,100115.61
2022-09-23T07:23:11.307Z,100111.27
2022-09-23T07:25:42.870Z,100110.31
2022-09-23T07:28:12.165Z,100110.20
2022-09-23T07:30:51.446Z,100103.95
2022-09-23T07:33:25.599Z,100108.92
2022-09-23T07:35:43.954Z,100111.04
2022-09-23T07:38:13.331Z,100122.77
2022-09-23T07:40:45.418Z,100119.40
2022-09-23T07:43:14.751Z,100119.63
2022-09-23T07:45:45.418Z,100118.27
2022-09-23T07:48:15.549Z,100117.45
2022-09-23T07:50:45.007Z,100117.67
2022-09-23T07:53:15.423Z,100114.73
2022-09-23T07:55:54.024Z,100115.95
2022-09-23T07:58:23.469Z,100113.52
2022-09-23T08:00:53.837Z,100103.19
2022-09-23T08:03:23.111Z,100101.59
2022-09-23T08:05:53.682Z,100104.75
2022-09-23T08:08:23.383Z,100108.75
2022-09-23T08:10:52.172Z,100110.64
2022-09-23T08:13:21.256Z,100111.48
2022-09-23T08:15:55.247Z,100105.22
2022-09-23T08:18:21.634Z,100109.42
2022-09-23T08:20:51.128Z,100102.35
2022-09-23T08:23:20.881Z,100101.08
2022-09-23T08:25:59.780Z,100108.76
2022-09-23T08:28:29.108Z,100106.43
2022-09-23T08:30:58.226Z,100107.58
2022-09-23T08:33:28.148Z,100114.63
2022-09-23T08:36:02.253Z,100117.69
2022-09-23T08:38:30.897Z,100117.17
2022-09-23T08:41:37.172Z,100115.39
2022-09-23T08:44:24.810Z,100121.19
2022-09-23T08:47:21.144Z,100115.39
2022-09-23T08:50:01.271Z,100110.98
2022-09-23T08:52:39.149Z,100106.66
2022-09-23T08:55:12.100Z,100091.48
2022-09-23T08:58:26.711Z,100092.02
2022-09-23T09:01:23.778Z,100093.09
2022-09-23T09:04:09.438Z,100099.98
2022-09-23T09:06:53.014Z,100096.62
2022-09-23T09:09:26.039Z,100088.19
2022-09-23T09:12:01.834Z,100085.65
2022-09-23T09:14:45.814Z,100085.55
2022-09-23T09:17:31.737Z,100089.88
2022-09-23T09:20:57.869Z,100087.56
2022-09-23T09:23:38.408Z,100085.34
2022-09-23T09:26:12.247Z,100086.09
2022-09-23T09:28:52.544Z,100095.47
2022-09-23T09:31:35.759Z,100089.47
2022-09-23T09:34:15.672Z,100091.78
2022-09-23T09:36:57.672Z,100089.78
2022-09-23T09:39:30.609Z,100092.95
2022-09-23T09:42:00.577Z,100094.11
2022-09-23T09:44:53.349Z,100094.95
2022-09-23T09:47:46.762Z,100096.22
2022-09-23T09:50:39.892Z,100099.17
2022-09-23T09:53:25.999Z,100086.62
2022-09-23T09:56:08.942Z,100080.81
2022-09-23T09:58:54.015Z,100088.83
2022-09-23T10:01:29.777Z,100079.75
2022-09-23T10:04:04.646Z,100082.72
2022-09-23T10:06:35.382Z,100077.67
2022-09-23T10:09:16.702Z,100078.09
2022-09-23T10:12:10.926Z,100082.61
2022-09-23T10:14:39.877Z,100081.53
2022-09-23T10:17:21.377Z,100073.17
2022-09-23T10:19:56.583Z,100071.69
2022-09-23T10:22:29.731Z,100072.84
2022-09-23T10:25:03.463Z,100067.03
2022-09-23T10:27:34.649Z,100062.48
2022-09-23T10:30:24.169Z,100064.05
2022-09-23T10:32:54.557Z,100063.30
2022-09-23T10:35:26.343Z,100064.34
2022-09-23T10:38:01.515Z,100066.43
2022-09-23T10:40:57.725Z,100062.44
2022-09-23T10:44:11.485Z,100063.69
2022-09-23T10:46:46.684Z,100061.88
2022-09-23T10:49:27.245Z,100063.44
2022-09-23T10:52:38.848Z,100059.54
2022-09-23T10:55:42.130Z,100062.91
2022-09-23T10:58:51.802Z,100062.59
2022-09-23T11:01:53.044Z,100058.29
2022-09-23T11:04:53.787Z,100054.70
2022-09-23T11:08:04.091Z,100061.04
2022-09-23T11:10:51.886Z,100061.47
2022-09-23T11:13:38.332Z,100066.03
2022-09-23T11:16:38.611Z,100057.87
2022-09-23T11:19:34.234Z,100059.25
2022-09-23T11:22:20.610Z,100058.84
2022-09-23T11:25:16.438Z,100057.59
2022-09-23T11:28:19.449Z,100054.44
2022-09-23T11:31:24.400Z,100057.49
2022-09-23T11:33:59.455Z,100061.81
2022-09-23T11:36:41.266Z,100057.81
2022-09-23T11:39:29.737Z,100053.16
2022-09-23T11:41:59.960Z,100057.06
2022-09-23T11:44:42.697Z,100048.08
2022-09-23T11:47:30.176Z,100042.14
2022-09-23T11:50:27.949Z,100041.08
2022-09-23T11:53:24.981Z,100045.73
2022-09-23T11:56:04.103Z,100046.58
2022-09-23T11:58:43.473Z,100042.45
2022-09-23T12:01:37.204Z,100040.98
2022-09-23T12:04:32.129Z,100047.86
2022-09-23T12:07:14.908Z,100049.86
2022-09-23T12:10:05.487Z,100043.33
2022-09-23T12:13:06.439Z,100041.67
2022-09-23T12:16:01.804Z,100034.20
2022-09-23T12:18:51.944Z,100032.84
2022-09-23T12:21:51.467Z,100037.50
2022-09-23T12:24:35.849Z,100036.44
2022-09-23T12:27:10.375Z,100030.63
2022-09-23T12:29:40.617Z,100035.06
2022-09-23T12:32:12.830Z,100038.75
2022-09-23T12:34:47.565Z,100033.57
2022-09-23T12:37:37.641Z,100034.73
2022-09-23T12:40:24.766Z,100029.23
2022-09-23T12:42:54.253Z,100035.67
2022-09-23T12:45:34.527Z,100034.61
2022-09-23T12:48:26.403Z,100039.77
2022-09-23T12:51:13.070Z,100035.20
2022-09-23T12:54:23.059Z,100028.13
2022-09-23T12:56:57.453Z,100029.50
2022-09-23T12:59:29.656Z,100031.41
2022-09-23T13:02:00.468Z,100030.25
2022-09-23T13:05:07.415Z,100026.34
2022-09-23T13:07:43.383Z,100021.69
2022-09-23T13:10:35.355Z,100029.09
2022-09-23T13:13:06.310Z,100026.03
2022-09-23T13:15:36.821Z,100023.37
2022-09-23T13:18:25.960Z,100018.73
2022-09-23T13:20:56.530Z,100014.92
2022-09-23T13:23:27.125Z,100021.35
2022-09-23T13:26:01.558Z,100025.03
2022-09-23T13:28:52.979Z,100025.12
2022-09-23T13:31:22.534Z,100028.72
2022-09-23T13:33:55.131Z,100029.25
2022-09-23T13:36:24.188Z,100031.69
2022-09-23T13:38:54.271Z,100029.03
2022-09-23T13:41:26.052Z,100022.48
2022-09-23T13:43:59.284Z,100021.32
2022-09-23T13:46:30.541Z,100027.78
2022-09-23T13:48:59.323Z,100023.47
2022-09-23T13:51:31.537Z,100031.30
2022-09-23T13:54:04.249Z,100035.42
2022-09-23T13:56:37.354Z,100026.78
2022-09-23T13:59:27.657Z,100026.03
2022-09-23T14:02:15.104Z,100026.56
2022-09-23T14:04:45.834Z,100027.19
2022-09-23T14:07:15.631Z,100026.66
2022-09-23T14:09:47.896Z,100023.81
2022-09-23T14:12:20.277Z,100033.42
2022-09-23T14:14:51.402Z,100032.27
2022-09-23T14:17:22.604Z,100031.64
2022-09-23T14:19:51.999Z,100032.39
2022-09-23T14:22:26.179Z,100035.05
2022-09-23T14:24:55.827Z,100027.45
2022-09-23T14:27:36.155Z,100037.19
2022-09-23T14:30:05.757Z,100033.40
2022-09-23T14:32:35.529Z,100033.52
2022-09-23T14:35:09.833Z,100038.48
2022-09-23T14:37:49.772Z,100036.80
2022-09-23T14:40:30.344Z,100038.06
2022-09-23T14:43:26.965Z,100039.12
2022-09-23T14:45:59.759Z,100038.40
2022-09-23T14:48:33.897Z,100048.75
2022-09-23T14:51:07.573Z,100044.22
2022-09-23T14:53:45.297Z,100042.39
2022-09-23T14:56:19.206Z,100040.61
2022-09-23T14:59:00.576Z,100029.28
2022-09-23T15:01:37.696Z,100037.20
2022-09-23T15:04:23.597Z,100036.05
2022-09-23T15:07:06.122Z,100036.79
2022-09-23T15:09:41.805Z,100033.63
2022-09-23T15:12:20.480Z,100036.05
2022-09-23T15:14:51.514Z,100034.69
2022-09-23T15:17:37.190Z,100034.38
2022-09-23T15:20:13.093Z,100028.88
2022-09-23T15:22:48.235Z,100033.84
2022-09-23T15:25:29.963Z,100035.73
2022-09-23T15:28:02.799Z,100038.17
2022-09-23T15:30:31.954Z,100035.33
2022-09-23T15:33:01.185Z,100037.22
2022-09-23T15:35:31.714Z,100035.85
2022-09-23T15:38:01.864Z,100039.12
2022-09-23T15:40:33.981Z,100039.55
2022-09-23T15:43:20.180Z,100039.45
2022-09-23T15:45:55.437Z,100047.05
2022-09-23T15:48:31.442Z,100042.41
2022-09-23T15:51:04.503Z,100043.46
2022-09-23T15:53:33.747Z,100039.98
2022-09-23T15:56:04.032Z,100042.62
2022-09-23T15:58:34.973Z,100048.42
2022-09-23T16:01:04.853Z,100054.33
2022-09-23T16:03:34.123Z,100052.96
2022-09-23T16:06:04.190Z,100056.23
2022-09-23T16:08:33.508Z,100053.91
2022-09-23T16:11:05.767Z,100060.13
2022-09-23T16:13:34.498Z,100061.72
2022-09-23T16:16:03.957Z,100055.59
2022-09-23T16:18:33.069Z,100060.23
2022-09-23T16:21:09.433Z,100065.09
2022-09-23T16:23:38.400Z,100064.14
2022-09-23T16:26:17.260Z,100068.98
2022-09-23T16:28:48.520Z,100064.56
2022-09-23T16:31:17.901Z,100062.02
2022-09-23T16:33:47.747Z,100065.30
2022-09-23T16:36:31.139Z,100061.92
2022-09-23T16:39:03.129Z,100062.12
2022-09-23T16:41:33.081Z,100067.09
2022-09-23T16:44:04.611Z,100068.14
2022-09-23T16:46:34.272Z,100066.24
2022-09-23T16:49:03.231Z,100069.19
2022-09-23T16:51:35.524Z,100068.66
2022-09-23T16:54:11.010Z,100060.13
2022-09-23T16:56:46.010Z,100067.83
2022-09-23T16:59:15.493Z,100070.25
2022-09-23T17:02:02.854Z,100068.00
2022-09-23T17:04:32.659Z,100067.89
2022-09-23T17:07:02.363Z,100068.30
2022-09-23T17:09:33.562Z,100068.84
2022-09-23T17:12:21.545Z,100071.58
2022-09-23T17:14:52.228Z,100072.10
2022-09-23T17:17:23.173Z,100071.47
2022-09-23T17:19:54.548Z,100062.92
2022-09-23T17:22:24.129Z,100068.61
2022-09-23T17:24:53.118Z,100067.24
2022-09-23T17:27:24.632Z,100069.88
2022-09-23T17:29:54.442Z,100069.88
2022-09-23T17:32:23.388Z,100069.45
2022-09-23T17:34:52.882Z,100069.34
2022-09-23T17:37:22.780Z,100070.18
2022-09-23T17:39:53.473Z,100071.02
2022-09-23T17:42:22.289Z,100074.93
2022-09-23T17:44:50.945Z,100075.14
2022-09-23T17:47:20.344Z,100071.23
2022-09-23T17:49:49.535Z,100072.08
2022-09-23T17:52:19.231Z,100070.70
2022-09-23T17:54:48.159Z,100067.97
2022-09-23T17:57:16.908Z,100069.34
2022-09-23T17:59:45.620Z,100070.06
2022-09-23T18:02:15.809Z,100062.90
2022-09-23T18:04:44.852Z,100059.20
2022-09-23T18:07:13.616Z,100060.58
2022-09-23T18:09:42.508Z,100063.63
2022-09-23T18:12:11.569Z,100063.00
2022-09-23T18:14:42.224Z,100063.31
2022-09-23T18:17:12.102Z,100058.05
2022-09-23T18:19:41.075Z,100053.93
2022-09-23T18:22:10.446Z,100062.36
2022-09-23T18:24:40.920Z,100063.73
2022-09-23T18:27:10.533Z,100056.24
2022-09-23T18:29:39.981Z,100062.68
2022-09-23T18:32:14.222Z,100051.92
2022-09-23T18:34:43.360Z,100057.09
2022-09-23T18:37:16.105Z,100052.98
2022-09-23T18:39:43.261Z,100051.70
2022-09-23T18:42:13.029Z,100048.53
2022-09-23T18:44:42.935Z,100048.95
2022-09-23T18:47:14.466Z,100048.92
2022-09-23T18:50:01.877Z,100053.77
2022-09-23T18:52:31.339Z,100050.59
2022-09-23T18:55:01.211Z,100052.49
2022-09-23T18:57:30.388Z,100047.86
2022-09-23T19:00:00.139Z,100048.91
2022-09-23T19:02:29.104Z,100051.22
2022-09-23T19:04:57.988Z,100050.05
2022-09-23T19:07:26.579Z,100049.41
2022-09-23T19:09:56.100Z,100052.88
2022-09-23T19:12:25.271Z,100052.36
2022-09-23T19:14:55.592Z,100048.10
2022-09-23T19:17:24.528Z,100049.47
2022-09-23T19:19:55.418Z,100046.09
2022-09-23T19:22:24.243Z,100049.56
2022-09-23T19:24:53.025Z,100048.92
2022-09-23T19:27:23.145Z,100048.92
2022-09-23T19:30:05.717Z,100048.92
2022-09-23T19:32:35.685Z,100040.39
2022-09-23T19:35:06.766Z,100039.34
2022-09-23T19:37:35.566Z,100036.92
2022-09-23T19:40:06.143Z,100030.72
2022-09-23T19:42:38.519Z,100025.44
2022-09-23T19:45:08.138Z,100033.97
2022-09-23T19:47:38.101Z,100030.07
2022-09-23T19:50:09.000Z,100031.13
2022-09-23T19:52:38.431Z,100030.48
2022-09-23T19:55:10.137Z,100030.16
2022-09-23T19:57:42.072Z,100033.42
2022-09-23T20:00:15.204Z,100036.48
2022-09-23T20:02:44.134Z,100033.54
2022-09-23T20:05:13.846Z,100026.70
2022-09-23T20:07:43.418Z,100030.16
2022-09-23T20:10:13.297Z,100028.48
2022-09-23T20:12:42.679Z,100026.27
2022-09-23T20:15:11.724Z,100022.88
2022-09-23T20:17:41.298Z,100025.83
2022-09-23T20:20:11.309Z,100020.67
2022-09-23T20:22:40.192Z,100018.45
2022-09-23T20:25:12.314Z,100018.57
2022-09-23T20:27:41.644Z,100026.05
2022-09-23T20:30:11.550Z,100018.05
2022-09-23T20:32:44.480Z,100020.26
2022-09-23T20:35:11.247Z,100019.73
2022-09-23T20:37:40.720Z,100023.32
2022-09-23T20:40:11.020Z,100022.27
2022-09-23T20:42:42.380Z,100014.78
2022-09-23T20:45:11.986Z,100019.53
2022-09-23T20:47:42.711Z,100012.16
2022-09-23T20:50:12.462Z,100017.11
2022-09-23T20:52:41.826Z,100008.58
2022-09-23T20:55:10.525Z,100017.20
2022-09-23T20:57:40.911Z,100014.46
2022-09-23T21:00:11.767Z,100011.93
2022-09-23T21:02:42.242Z,100011.93
2022-09-23T21:05:11.059Z,100008.35
2022-09-23T21:07:39.860Z,100010.77
2022-09-23T21:10:09.773Z,100007.19
2022-09-23T21:12:38.662Z,100007.71
2022-09-23T21:15:09.218Z,100012.14
2022-09-23T21:17:39.261Z,100006.14
2022-09-23T21:20:09.264Z,100009.72
2022-09-23T21:22:39.946Z,100005.17
2022-09-23T21:25:27.410Z,100009.28
2022-09-23T21:27:41.712Z,100006.43
2022-09-23T21:30:12.560Z,100007.45
2022-09-23T21:32:41.994Z,100006.75
2022-09-23T21:35:10.628Z,100003.81
2022-09-23T21:37:40.002Z,99999.17
2022-09-23T21:40:29.123Z,100000.75
2022-09-23T21:43:00.856Z,100002.64
2022-09-23T21:45:31.534Z,99996.12
2022-09-23T21:48:00.837Z,99995.28
2022-09-23T21:50:29.627Z,99994.11
2022-09-23T21:53:00.841Z,99995.13
2022-09-23T21:55:30.364Z,99996.18
2022-09-23T21:57:59.091Z,99987.97
2022-09-23T22:00:27.954Z,99997.02
2022-09-23T22:02:57.794Z,99995.97
2022-09-23T22:05:27.105Z,100000.95
2022-09-23T22:07:56.048Z,99994.28
2022-09-23T22:10:27.055Z,99996.91
2022-09-23T22:12:58.618Z,99999.13
2022-09-23T22:15:28.131Z,99993.53
2022-09-23T22:17:58.300Z,99989.75
2022-09-23T22:20:28.916Z,99997.55
2022-09-23T22:22:57.707Z,99990.70
2022-09-23T22:25:26.930Z,99995.86
2022-09-23T22:28:13.981Z,99988.38
2022-09-23T22:31:01.486Z,99987.73
2022-09-23T22:33:30.685Z,99986.48
2022-09-23T22:36:03.481Z,99990.70
2022-09-23T22:38:35.401Z,99984.18
2022-09-23T22:41:05.146Z,99990.33
2022-09-23T22:43:34.436Z,99984.33
2022-09-23T22:46:05.287Z,99984.84
2022-09-23T22:48:34.577Z,99981.80
2022-09-23T22:51:05.558Z,99983.66
2022-09-23T22:53:34.911Z,99977.33
2022-09-23T22:56:05.607Z,99981.44
2022-09-23T22:58:34.785Z,99980.74
2022-09-23T23:01:03.939Z,99979.17
2022-09-23T23:03:35.251Z,99981.70
2022-09-23T23:06:04.558Z,99974.65
2022-09-23T23:08:35.130Z,99982.75
2022-09-23T23:11:09.574Z,99981.70
2022-09-23T23:13:41.657Z,99977.27
2022-09-23T23:16:12.046Z,99975.64
2022-09-23T23:18:43.129Z,99973.00
2022-09-23T23:21:15.452Z,99973.00
2022-09-23T23:23:51.670Z,99967.52
2022-09-23T23:26:25.821Z,99971.11
2022-09-23T23:28:54.875Z,99968.89
2022-09-23T23:31:26.765Z,99966.16
2022-09-23T23:33:56.980Z,99960.68
2022-09-23T23:36:25.848Z,99967.84
2022-09-23T23:38:54.554Z,99946.77
2022-09-23T23:41:23.389Z,99957.40
2022-09-23T23:43:57.933Z,99947.81
2022-09-23T23:46:28.082Z,99952.45
2022-09-23T23:48:57.100Z,99957.72
2022-09-23T23:51:29.514Z,99952.88
2022-09-23T23:53:58.631Z,99952.03
2022-09-23T23:56:27.235Z,99952.56
2022-09-23T23:58:59.483Z,99949.09
